createdAt,value
2018-02-13T00:00:04.799Z,0
2018-02-13T00:01:13.621Z,0
2018-02-13T00:02:22.452Z,0
2018-02-13T00:03:31.277Z,0
2018-02-13T00:04:40.253Z,0
2018-02-13T00:05:49.097Z,0
2018-02-13T00:06:57.902Z,0
2018-02-13T00:08:06.733Z,0
2018-02-13T00:09:15.556Z,0
2018-02-13T00:10:24.531Z,0
2018-02-13T00:11:33.402Z,0
2018-02-13T00:12:42.186Z,0
2018-02-13T00:13:51.281Z,0
2018-02-13T00:15:00.110Z,0
2018-02-13T00:16:08.930Z,0
2018-02-13T00:17:17.756Z,0
2018-02-13T00:18:26.580Z,0
2018-02-13T00:19:35.406Z,0
2018-02-13T00:20:44.228Z,0
2018-02-13T00:21:53.203Z,0
2018-02-13T00:23:02.028Z,0
2018-02-13T00:24:10.853Z,0
2018-02-13T00:25:19.927Z,0
2018-02-13T00:26:28.751Z,0
2018-02-13T00:27:38.176Z,0
2018-02-13T00:28:46.998Z,0
2018-02-13T00:29:56.098Z,0
2018-02-13T00:31:04.920Z,0
2018-02-13T00:32:13.746Z,0
2018-02-13T00:33:22.721Z,0
2018-02-13T00:34:31.545Z,0
2018-02-13T00:35:40.370Z,0
2018-02-13T00:36:49.193Z,0
2018-02-13T00:37:58.019Z,0
2018-02-13T00:39:06.941Z,0
2018-02-13T00:40:15.767Z,0
2018-02-13T00:41:24.591Z,0
2018-02-13T00:42:33.418Z,0
2018-02-13T00:43:42.241Z,0
2018-02-13T00:44:51.066Z,0
2018-02-13T00:45:59.888Z,0
2018-02-13T00:47:08.711Z,0
2018-02-13T00:48:17.542Z,0
2018-02-13T00:49:26.638Z,0
2018-02-13T00:50:35.462Z,0
2018-02-13T00:51:44.289Z,0
2018-02-13T00:52:53.121Z,0
2018-02-13T00:54:02.208Z,0
2018-02-13T00:55:11.033Z,0
2018-02-13T00:56:19.859Z,0
2018-02-13T00:57:28.683Z,0
2018-02-13T00:58:37.511Z,0
2018-02-13T00:59:46.338Z,0
2018-02-13T01:00:55.434Z,0
2018-02-13T01:02:04.259Z,0
2018-02-13T01:03:13.085Z,0
2018-02-13T01:04:21.908Z,0
2018-02-13T01:05:30.733Z,0
2018-02-13T01:06:39.558Z,0
2018-02-13T01:07:48.382Z,0
2018-02-13T01:08:57.209Z,0
2018-02-13T01:10:06.037Z,0
2018-02-13T01:11:15.137Z,0
2018-02-13T01:12:23.979Z,0
2018-02-13T01:13:33.232Z,0
2018-02-13T01:14:42.327Z,0
2018-02-13T01:15:51.158Z,0
2018-02-13T01:16:59.976Z,0
2018-02-13T01:18:09.076Z,0
2018-02-13T01:19:18.149Z,0
2018-02-13T01:20:26.974Z,0
2018-02-13T01:21:36.072Z,0
2018-02-13T01:22:44.897Z,0
2018-02-13T01:23:53.718Z,0
2018-02-13T01:25:02.917Z,0
2018-02-13T01:26:11.740Z,0
2018-02-13T01:27:20.569Z,0
2018-02-13T01:28:29.669Z,0
2018-02-13T01:29:38.493Z,0
2018-02-13T01:30:47.316Z,0
2018-02-13T01:31:56.147Z,0
2018-02-13T01:33:05.245Z,0
2018-02-13T01:34:14.070Z,0
2018-02-13T01:35:22.894Z,0
2018-02-13T01:36:31.767Z,0
2018-02-13T01:37:40.590Z,0
2018-02-13T01:38:49.409Z,0
2018-02-13T01:39:58.235Z,0
2018-02-13T01:41:07.059Z,0
2018-02-13T01:42:15.985Z,0
2018-02-13T01:43:25.086Z,0
2018-02-13T01:44:33.910Z,0
2018-02-13T01:45:42.735Z,0
2018-02-13T01:46:51.559Z,0
2018-02-13T01:48:00.765Z,0
2018-02-13T01:49:09.592Z,0
2018-02-13T01:50:18.413Z,0
2018-02-13T01:51:27.235Z,0
2018-02-13T01:52:36.059Z,0
2018-02-13T01:53:45.032Z,0
2018-02-13T01:54:53.855Z,0
2018-02-13T01:56:02.681Z,0
2018-02-13T01:57:11.779Z,0
2018-02-13T01:58:20.604Z,0
2018-02-13T01:59:29.577Z,0
2018-02-13T02:00:38.402Z,0
2018-02-13T02:01:47.226Z,0
2018-02-13T02:02:56.050Z,0
2018-02-13T02:04:04.873Z,0
2018-02-13T02:05:13.853Z,0
2018-02-13T02:06:22.672Z,0
2018-02-13T02:07:31.496Z,0
2018-02-13T02:08:40.321Z,0
2018-02-13T02:09:49.147Z,0
2018-02-13T02:10:58.071Z,0
2018-02-13T02:12:07.440Z,0
2018-02-13T02:13:16.263Z,0
2018-02-13T02:14:25.088Z,0
2018-02-13T02:15:33.910Z,0
2018-02-13T02:16:42.738Z,0
2018-02-13T02:17:51.562Z,0
2018-02-13T02:19:00.388Z,0
2018-02-13T02:20:09.484Z,0
2018-02-13T02:21:18.310Z,0
2018-02-13T02:22:27.433Z,0
2018-02-13T02:23:36.256Z,0
2018-02-13T02:24:45.080Z,0
2018-02-13T02:25:53.906Z,0
2018-02-13T02:27:02.729Z,0
2018-02-13T02:28:11.704Z,0
2018-02-13T02:29:20.528Z,0
2018-02-13T02:30:29.354Z,0
2018-02-13T02:31:38.178Z,0
2018-02-13T02:32:47.002Z,0
2018-02-13T02:33:55.874Z,0
2018-02-13T02:35:04.700Z,0
2018-02-13T02:36:13.523Z,0
2018-02-13T02:37:22.353Z,0
2018-02-13T02:38:31.171Z,0
2018-02-13T02:39:40.097Z,0
2018-02-13T02:40:49.197Z,0
2018-02-13T02:41:58.024Z,0
2018-02-13T02:43:06.846Z,0
2018-02-13T02:44:15.669Z,0
2018-02-13T02:45:24.599Z,0
2018-02-13T02:46:33.695Z,0
2018-02-13T02:47:42.790Z,0
2018-02-13T02:48:51.615Z,0
2018-02-13T02:50:00.439Z,0
2018-02-13T02:51:09.596Z,0
2018-02-13T02:52:18.695Z,0
2018-02-13T02:53:27.518Z,0
2018-02-13T02:54:36.340Z,0
2018-02-13T02:55:45.164Z,0
2018-02-13T02:56:54.287Z,0
2018-02-13T02:58:03.112Z,0
2018-02-13T02:59:11.936Z,0
2018-02-13T03:00:20.761Z,0
2018-02-13T03:01:29.592Z,0
2018-02-13T03:02:38.711Z,0
2018-02-13T03:03:47.807Z,0
2018-02-13T03:04:56.633Z,0
2018-02-13T03:06:05.458Z,0
2018-02-13T03:07:14.279Z,0
2018-02-13T03:08:23.204Z,0
2018-02-13T03:09:32.027Z,0
2018-02-13T03:10:40.850Z,0
2018-02-13T03:11:49.673Z,0
2018-02-13T03:12:58.497Z,0
2018-02-13T03:14:07.622Z,0
2018-02-13T03:15:16.446Z,0
2018-02-13T03:16:25.270Z,0
2018-02-13T03:17:34.093Z,0
2018-02-13T03:18:42.918Z,0
2018-02-13T03:19:51.741Z,0
2018-02-13T03:21:00.564Z,0
2018-02-13T03:22:09.391Z,0
2018-02-13T03:23:18.216Z,0
2018-02-13T03:24:27.044Z,0
2018-02-13T03:25:35.915Z,0
2018-02-13T03:26:44.739Z,0
2018-02-13T03:27:53.562Z,0
2018-02-13T03:29:02.384Z,0
2018-02-13T03:30:11.261Z,0
2018-02-13T03:31:20.237Z,0
2018-02-13T03:32:29.060Z,0
2018-02-13T03:33:37.883Z,0
2018-02-13T03:34:46.748Z,0
2018-02-13T03:35:55.530Z,0
2018-02-13T03:37:04.632Z,0
2018-02-13T03:38:13.452Z,0
2018-02-13T03:39:22.276Z,0
2018-02-13T03:40:31.097Z,0
2018-02-13T03:41:39.921Z,0
2018-02-13T03:42:48.747Z,0
2018-02-13T03:43:57.570Z,0
2018-02-13T03:45:06.395Z,0
2018-02-13T03:46:15.218Z,0
2018-02-13T03:47:24.041Z,0
2018-02-13T03:48:32.866Z,0
2018-02-13T03:49:41.691Z,0
2018-02-13T03:50:50.515Z,0
2018-02-13T03:51:59.340Z,0
2018-02-13T03:53:08.176Z,0
2018-02-13T03:54:17.476Z,0
2018-02-13T03:55:26.300Z,0
2018-02-13T03:56:35.130Z,0
2018-02-13T03:57:43.953Z,0
2018-02-13T03:58:52.775Z,0
2018-02-13T04:00:01.697Z,0
2018-02-13T04:01:10.524Z,0
2018-02-13T04:02:19.346Z,0
2018-02-13T04:03:28.175Z,0
2018-02-13T04:04:36.998Z,0
2018-02-13T04:05:46.223Z,0
2018-02-13T04:06:55.043Z,0
2018-02-13T04:08:03.865Z,0
2018-02-13T04:09:12.687Z,0
2018-02-13T04:10:21.512Z,0
2018-02-13T04:11:30.486Z,0
2018-02-13T04:12:39.308Z,0
2018-02-13T04:13:48.132Z,0
2018-02-13T04:14:56.956Z,0
2018-02-13T04:16:05.780Z,0
2018-02-13T04:17:14.876Z,0
2018-02-13T04:18:23.973Z,0
2018-02-13T04:19:32.865Z,0
2018-02-13T04:20:41.631Z,0
2018-02-13T04:21:50.456Z,0
2018-02-13T04:22:59.701Z,0
2018-02-13T04:24:08.525Z,0
2018-02-13T04:25:17.353Z,0
2018-02-13T04:26:26.449Z,0
2018-02-13T04:27:35.274Z,0
2018-02-13T04:28:44.098Z,0
2018-02-13T04:29:52.922Z,0
2018-02-13T04:31:01.747Z,0
2018-02-13T04:32:10.845Z,0
2018-02-13T04:33:19.669Z,0
2018-02-13T04:34:28.492Z,0
2018-02-13T04:35:37.315Z,0
2018-02-13T04:36:46.142Z,0
2018-02-13T04:37:54.965Z,0
2018-02-13T04:39:03.789Z,0
2018-02-13T04:40:12.764Z,0
2018-02-13T04:41:21.586Z,0
2018-02-13T04:42:30.410Z,0
2018-02-13T04:43:39.234Z,0
2018-02-13T04:44:48.053Z,0
2018-02-13T04:45:56.877Z,0
2018-02-13T04:47:05.698Z,0
2018-02-13T04:48:14.524Z,0
2018-02-13T04:49:23.348Z,0
2018-02-13T04:50:32.174Z,0
2018-02-13T04:51:41.096Z,0
2018-02-13T04:52:49.916Z,0
2018-02-13T04:53:58.741Z,0
2018-02-13T04:55:07.566Z,0
2018-02-13T04:56:16.387Z,0
2018-02-13T04:57:25.313Z,0
2018-02-13T04:58:34.135Z,0
2018-02-13T04:59:42.967Z,0
2018-02-13T05:00:51.790Z,0
2018-02-13T05:02:00.615Z,0
2018-02-13T05:03:09.589Z,0
2018-02-13T05:04:18.692Z,0
2018-02-13T05:05:27.789Z,0
2018-02-13T05:06:36.614Z,0
2018-02-13T05:07:45.439Z,0
2018-02-13T05:08:54.412Z,0
2018-02-13T05:10:03.236Z,0
2018-02-13T05:11:12.070Z,0
2018-02-13T05:12:20.882Z,0
2018-02-13T05:13:30.036Z,0
2018-02-13T05:14:39.008Z,0
2018-02-13T05:15:47.835Z,0
2018-02-13T05:16:56.661Z,0
2018-02-13T05:18:05.486Z,0
2018-02-13T05:19:14.308Z,0
2018-02-13T05:20:23.554Z,0
2018-02-13T05:21:32.381Z,0
2018-02-13T05:22:41.479Z,0
2018-02-13T05:23:50.302Z,0
2018-02-13T05:24:59.127Z,0
2018-02-13T05:26:08.151Z,0
2018-02-13T05:27:16.973Z,0
2018-02-13T05:28:25.796Z,0
2018-02-13T05:29:34.623Z,0
2018-02-13T05:30:43.447Z,0
2018-02-13T05:31:52.270Z,0
2018-02-13T05:33:01.093Z,0
2018-02-13T05:34:09.919Z,0
2018-02-13T05:35:18.742Z,0
2018-02-13T05:36:27.567Z,0
2018-02-13T05:37:36.692Z,0
2018-02-13T05:38:45.513Z,0
2018-02-13T05:39:54.337Z,0
2018-02-13T05:41:03.432Z,0
2018-02-13T05:42:12.254Z,0
2018-02-13T05:43:21.080Z,0
2018-02-13T05:44:29.901Z,0
2018-02-13T05:45:38.724Z,0
2018-02-13T05:46:47.547Z,0
2018-02-13T05:47:56.370Z,0
2018-02-13T05:49:05.343Z,0
2018-02-13T05:50:14.166Z,0
2018-02-13T05:51:22.987Z,0
2018-02-13T05:52:31.809Z,0
2018-02-13T05:53:40.633Z,0
2018-02-13T05:54:49.731Z,0
2018-02-13T05:55:58.555Z,0
2018-02-13T05:57:07.655Z,0
2018-02-13T05:58:16.487Z,0
2018-02-13T05:59:25.586Z,0
2018-02-13T06:00:34.626Z,0
2018-02-13T06:01:43.389Z,0
2018-02-13T06:02:52.215Z,0
2018-02-13T06:04:01.041Z,0
2018-02-13T06:05:10.142Z,0
2018-02-13T06:06:19.061Z,0
2018-02-13T06:07:27.885Z,0
2018-02-13T06:08:36.711Z,0
2018-02-13T06:09:45.529Z,0
2018-02-13T06:10:54.355Z,0
2018-02-13T06:12:03.603Z,0
2018-02-13T06:13:12.427Z,0
2018-02-13T06:14:21.249Z,0
2018-02-13T06:15:30.070Z,0
2018-02-13T06:16:38.895Z,0
2018-02-13T06:17:47.867Z,0
2018-02-13T06:18:56.690Z,0
2018-02-13T06:20:05.789Z,0
2018-02-13T06:21:14.611Z,0
2018-02-13T06:22:23.438Z,0
2018-02-13T06:23:32.361Z,0
2018-02-13T06:24:41.184Z,0
2018-02-13T06:25:50.012Z,0
2018-02-13T06:26:59.107Z,0
2018-02-13T06:28:07.981Z,0
2018-02-13T06:29:16.804Z,0
2018-02-13T06:30:25.629Z,0
2018-02-13T06:31:34.452Z,0
2018-02-13T06:32:43.277Z,0
2018-02-13T06:33:52.376Z,0
2018-02-13T06:35:01.200Z,0
2018-02-13T06:36:10.023Z,0
2018-02-13T06:37:18.850Z,0
2018-02-13T06:38:27.673Z,5
2018-02-13T06:39:36.498Z,5
2018-02-13T06:40:45.322Z,5
2018-02-13T06:41:54.143Z,5
2018-02-13T06:43:02.967Z,5
2018-02-13T06:44:11.789Z,5
2018-02-13T06:45:20.614Z,5
2018-02-13T06:46:29.437Z,10
2018-02-13T06:47:38.260Z,10
2018-02-13T06:48:47.085Z,10
2018-02-13T06:49:56.185Z,10
2018-02-13T06:51:05.008Z,15
2018-02-13T06:52:13.829Z,15
2018-02-13T06:53:22.650Z,15
2018-02-13T06:54:31.476Z,15
2018-02-13T06:55:40.300Z,20
2018-02-13T06:56:49.126Z,20
2018-02-13T06:57:57.946Z,20
2018-02-13T06:59:06.767Z,25
2018-02-13T07:00:15.690Z,25
2018-02-13T07:01:24.515Z,25
2018-02-13T07:02:33.338Z,30
2018-02-13T07:03:42.436Z,30
2018-02-13T07:04:51.260Z,30
2018-02-13T07:06:00.083Z,35
2018-02-13T07:07:08.910Z,35
2018-02-13T07:08:17.732Z,35
2018-02-13T07:09:26.554Z,40
2018-02-13T07:10:35.381Z,40
2018-02-13T07:11:44.201Z,40
2018-02-13T07:12:53.035Z,45
2018-02-13T07:14:01.848Z,45
2018-02-13T07:15:10.674Z,45
2018-02-13T07:16:19.498Z,50
2018-02-13T07:17:28.422Z,50
2018-02-13T07:18:37.247Z,50
2018-02-13T07:19:46.069Z,55
2018-02-13T07:20:55.167Z,55
2018-02-13T07:22:03.993Z,55
2018-02-13T07:23:12.923Z,60
2018-02-13T07:24:21.751Z,60
2018-02-13T07:25:30.573Z,65
2018-02-13T07:26:39.396Z,65
2018-02-13T07:27:48.489Z,65
2018-02-13T07:28:57.686Z,70
2018-02-13T07:30:06.515Z,70
2018-02-13T07:31:15.340Z,70
2018-02-13T07:32:24.163Z,75
2018-02-13T07:33:32.986Z,75
2018-02-13T07:34:42.009Z,75
2018-02-13T07:35:50.833Z,80
2018-02-13T07:36:59.654Z,90
2018-02-13T07:38:08.477Z,95
2018-02-13T07:39:17.301Z,95
2018-02-13T07:40:26.272Z,95
2018-02-13T07:41:35.095Z,85
2018-02-13T07:42:43.934Z,80
2018-02-13T07:43:52.741Z,80
2018-02-13T07:45:01.569Z,80
2018-02-13T07:46:10.849Z,85
2018-02-13T07:47:19.942Z,85
2018-02-13T07:48:28.765Z,85
2018-02-13T07:49:37.591Z,85
2018-02-13T07:50:46.416Z,85
2018-02-13T07:51:55.239Z,90
2018-02-13T07:53:04.342Z,95
2018-02-13T07:54:13.161Z,100
2018-02-13T07:55:21.987Z,100
2018-02-13T07:56:30.817Z,100
2018-02-13T07:57:39.936Z,100
2018-02-13T07:58:48.764Z,105
2018-02-13T07:59:57.861Z,105
2018-02-13T08:01:06.685Z,105
2018-02-13T08:02:15.515Z,105
2018-02-13T08:03:24.332Z,105
2018-02-13T08:04:33.155Z,110
2018-02-13T08:05:41.979Z,110
2018-02-13T08:06:50.803Z,110
2018-02-13T08:07:59.631Z,110
2018-02-13T08:09:08.555Z,115
2018-02-13T08:10:17.381Z,115
2018-02-13T08:11:26.204Z,115
2018-02-13T08:12:35.028Z,115
2018-02-13T08:13:43.851Z,115
2018-02-13T08:14:52.674Z,115
2018-02-13T08:16:01.500Z,120
2018-02-13T08:17:10.322Z,120
2018-02-13T08:18:19.148Z,120
2018-02-13T08:19:27.970Z,120
2018-02-13T08:20:36.893Z,120
2018-02-13T08:21:45.718Z,120
2018-02-13T08:22:54.543Z,125
2018-02-13T08:24:03.374Z,125
2018-02-13T08:25:12.198Z,125
2018-02-13T08:26:21.448Z,125
2018-02-13T08:27:30.273Z,125
2018-02-13T08:28:39.095Z,125
2018-02-13T08:29:47.918Z,125
2018-02-13T08:30:56.744Z,130
2018-02-13T08:32:05.987Z,130
2018-02-13T08:33:15.092Z,130
2018-02-13T08:34:23.920Z,130
2018-02-13T08:35:32.793Z,130
2018-02-13T08:36:41.621Z,130
2018-02-13T08:37:50.696Z,130
2018-02-13T08:38:59.523Z,135
2018-02-13T08:40:08.348Z,135
2018-02-13T08:41:17.172Z,135
2018-02-13T08:42:26.270Z,135
2018-02-13T08:43:35.247Z,135
2018-02-13T08:44:44.070Z,135
2018-02-13T08:45:53.173Z,135
2018-02-13T08:47:02.000Z,135
2018-02-13T08:48:10.825Z,135
2018-02-13T08:49:19.982Z,135
2018-02-13T08:50:28.804Z,140
2018-02-13T08:51:37.628Z,140
2018-02-13T08:52:46.452Z,140
2018-02-13T08:53:55.280Z,140
2018-02-13T08:55:04.203Z,140
2018-02-13T08:56:13.079Z,140
2018-02-13T08:57:21.903Z,140
2018-02-13T08:58:30.730Z,140
2018-02-13T08:59:39.555Z,140
2018-02-13T09:00:48.755Z,145
2018-02-13T09:01:57.578Z,145
2018-02-13T09:03:06.405Z,145
2018-02-13T09:04:15.228Z,145
2018-02-13T09:05:24.054Z,145
2018-02-13T09:06:32.878Z,145
2018-02-13T09:07:41.703Z,145
2018-02-13T09:08:50.528Z,145
2018-02-13T09:09:59.355Z,145
2018-02-13T09:11:08.178Z,145
2018-02-13T09:12:17.004Z,145
2018-02-13T09:13:25.828Z,145
2018-02-13T09:14:34.655Z,150
2018-02-13T09:15:43.480Z,150
2018-02-13T09:16:52.305Z,150
2018-02-13T09:18:01.279Z,150
2018-02-13T09:19:10.106Z,150
2018-02-13T09:20:18.983Z,150
2018-02-13T09:21:27.754Z,150
2018-02-13T09:22:36.579Z,150
2018-02-13T09:23:45.556Z,150
2018-02-13T09:24:54.382Z,150
2018-02-13T09:26:03.485Z,150
2018-02-13T09:27:12.303Z,150
2018-02-13T09:28:21.142Z,150
2018-02-13T09:29:30.821Z,150
2018-02-13T09:30:39.651Z,150
2018-02-13T09:31:48.471Z,150
2018-02-13T09:32:57.299Z,150
2018-02-13T09:34:06.402Z,150
2018-02-13T09:35:15.341Z,150
2018-02-13T09:36:24.163Z,155
2018-02-13T09:37:32.993Z,155
2018-02-13T09:38:41.818Z,155
2018-02-13T09:39:50.643Z,155
2018-02-13T09:40:59.617Z,155
2018-02-13T09:42:08.443Z,155
2018-02-13T09:43:17.271Z,155
2018-02-13T09:44:26.094Z,155
2018-02-13T09:45:34.920Z,155
2018-02-13T09:46:43.845Z,155
2018-02-13T09:47:52.677Z,155
2018-02-13T09:49:01.775Z,155
2018-02-13T09:50:10.603Z,160
2018-02-13T09:51:19.429Z,160
2018-02-13T09:52:28.405Z,160
2018-02-13T09:53:37.504Z,160
2018-02-13T09:54:46.332Z,160
2018-02-13T09:55:55.164Z,160
2018-02-13T09:57:03.988Z,160
2018-02-13T09:58:12.914Z,160
2018-02-13T09:59:21.741Z,160
2018-02-13T10:00:30.567Z,160
2018-02-13T10:01:39.392Z,160
2018-02-13T10:02:48.219Z,160
2018-02-13T10:03:57.246Z,160
2018-02-13T10:05:06.073Z,165
2018-02-13T10:06:14.899Z,165
2018-02-13T10:07:23.999Z,165
2018-02-13T10:08:32.881Z,165
2018-02-13T10:09:42.046Z,165
2018-02-13T10:10:50.875Z,165
2018-02-13T10:11:59.701Z,165
2018-02-13T10:13:08.531Z,165
2018-02-13T10:14:17.358Z,165
2018-02-13T10:15:26.282Z,170
2018-02-13T10:16:35.110Z,170
2018-02-13T10:17:43.988Z,170
2018-02-13T10:18:52.763Z,170
2018-02-13T10:20:01.590Z,170
2018-02-13T10:21:10.529Z,170
2018-02-13T10:22:19.355Z,170
2018-02-13T10:23:28.183Z,175
2018-02-13T10:24:37.010Z,170
2018-02-13T10:25:46.036Z,170
2018-02-13T10:26:55.012Z,170
2018-02-13T10:28:04.163Z,175
2018-02-13T10:29:12.989Z,175
2018-02-13T10:30:21.816Z,175
2018-02-13T10:31:30.641Z,175
2018-02-13T10:32:39.845Z,175
2018-02-13T10:33:48.669Z,175
2018-02-13T10:34:57.500Z,175
2018-02-13T10:36:06.328Z,175
2018-02-13T10:37:15.156Z,180
2018-02-13T10:38:24.084Z,175
2018-02-13T10:39:32.911Z,175
2018-02-13T10:40:41.737Z,175
2018-02-13T10:41:50.565Z,180
2018-02-13T10:42:59.392Z,180
2018-02-13T10:44:08.220Z,180
2018-02-13T10:45:17.048Z,180
2018-02-13T10:46:25.876Z,180
2018-02-13T10:47:34.974Z,180
2018-02-13T10:48:43.802Z,180
2018-02-13T10:49:52.781Z,180
2018-02-13T10:51:01.613Z,180
2018-02-13T10:52:10.717Z,185
2018-02-13T10:53:19.544Z,185
2018-02-13T10:54:28.643Z,185
2018-02-13T10:55:37.620Z,185
2018-02-13T10:56:46.447Z,185
2018-02-13T10:57:55.275Z,185
2018-02-13T10:59:04.147Z,185
2018-02-13T11:00:12.929Z,185
2018-02-13T11:01:21.855Z,185
2018-02-13T11:02:30.687Z,190
2018-02-13T11:03:39.511Z,190
2018-02-13T11:04:48.337Z,190
2018-02-13T11:05:57.163Z,190
2018-02-13T11:07:06.009Z,190
2018-02-13T11:08:14.828Z,190
2018-02-13T11:09:23.658Z,190
2018-02-13T11:10:32.487Z,195
2018-02-13T11:11:41.313Z,195
2018-02-13T11:12:50.716Z,195
2018-02-13T11:13:59.544Z,195
2018-02-13T11:15:08.372Z,195
2018-02-13T11:16:17.477Z,200
2018-02-13T11:17:26.309Z,195
2018-02-13T11:18:35.286Z,200
2018-02-13T11:19:44.113Z,195
2018-02-13T11:20:52.941Z,195
2018-02-13T11:22:01.767Z,195
2018-02-13T11:23:10.595Z,195
2018-02-13T11:24:19.475Z,200
2018-02-13T11:25:28.300Z,200
2018-02-13T11:26:37.179Z,200
2018-02-13T11:27:46.282Z,200
2018-02-13T11:28:55.110Z,200
2018-02-13T11:30:04.038Z,200
2018-02-13T11:31:12.867Z,200
2018-02-13T11:32:21.697Z,200
2018-02-13T11:33:30.522Z,200
2018-02-13T11:34:39.354Z,200
2018-02-13T11:35:48.283Z,200
2018-02-13T11:36:57.111Z,200
2018-02-13T11:38:05.940Z,200
2018-02-13T11:39:14.826Z,200
2018-02-13T11:40:23.601Z,205
2018-02-13T11:41:32.528Z,205
2018-02-13T11:42:41.357Z,205
2018-02-13T11:43:50.188Z,205
2018-02-13T11:44:59.024Z,205
2018-02-13T11:46:07.849Z,205
2018-02-13T11:47:17.205Z,205
2018-02-13T11:48:26.036Z,205
2018-02-13T11:49:35.137Z,205
2018-02-13T11:50:43.968Z,205
2018-02-13T11:51:52.796Z,205
2018-02-13T11:53:01.949Z,205
2018-02-13T11:54:11.057Z,205
2018-02-13T11:55:19.886Z,210
2018-02-13T11:56:28.720Z,205
2018-02-13T11:57:37.546Z,205
2018-02-13T11:58:46.423Z,205
2018-02-13T11:59:55.252Z,205
2018-02-13T12:01:04.082Z,205
2018-02-13T12:02:12.910Z,205
2018-02-13T12:03:22.013Z,210
2018-02-13T12:04:31.371Z,210
2018-02-13T12:05:40.200Z,210
2018-02-13T12:06:49.026Z,210
2018-02-13T12:07:57.854Z,210
2018-02-13T12:09:06.684Z,210
2018-02-13T12:10:15.563Z,215
2018-02-13T12:11:24.392Z,215
2018-02-13T12:12:33.220Z,215
2018-02-13T12:13:42.047Z,215
2018-02-13T12:14:50.878Z,215
2018-02-13T12:15:59.806Z,215
2018-02-13T12:17:08.913Z,215
2018-02-13T12:18:17.743Z,215
2018-02-13T12:19:26.572Z,215
2018-02-13T12:20:35.407Z,215
2018-02-13T12:21:44.510Z,215
2018-02-13T12:22:53.340Z,215
2018-02-13T12:24:02.442Z,215
2018-02-13T12:25:11.273Z,215
2018-02-13T12:26:20.103Z,215
2018-02-13T12:27:29.188Z,215
2018-02-13T12:28:38.019Z,215
2018-02-13T12:29:46.846Z,220
2018-02-13T12:30:55.675Z,220
2018-02-13T12:32:04.508Z,220
2018-02-13T12:33:13.440Z,220
2018-02-13T12:34:22.272Z,220
2018-02-13T12:35:31.101Z,220
2018-02-13T12:36:39.932Z,220
2018-02-13T12:37:48.760Z,220
2018-02-13T12:38:57.738Z,220
2018-02-13T12:40:06.566Z,220
2018-02-13T12:41:15.400Z,220
2018-02-13T12:42:24.233Z,220
2018-02-13T12:43:33.337Z,220
2018-02-13T12:44:42.419Z,220
2018-02-13T12:45:51.252Z,220
2018-02-13T12:47:00.084Z,245
2018-02-13T12:48:08.912Z,340
2018-02-13T12:49:18.033Z,435
2018-02-13T12:50:27.012Z,420
2018-02-13T12:51:35.840Z,325
2018-02-13T12:52:44.668Z,235
2018-02-13T12:53:53.501Z,725
2018-02-13T12:55:02.604Z,1230
2018-02-13T12:56:11.586Z,1245
2018-02-13T12:57:20.415Z,1330
2018-02-13T12:58:29.245Z,945
2018-02-13T12:59:38.077Z,520
2018-02-13T13:00:47.454Z,860
2018-02-13T13:01:56.286Z,620
2018-02-13T13:03:05.119Z,305
2018-02-13T13:04:13.950Z,235
2018-02-13T13:05:22.787Z,270
2018-02-13T13:06:32.165Z,600
2018-02-13T13:07:41.048Z,725
2018-02-13T13:08:49.877Z,900
2018-02-13T13:09:58.709Z,935
2018-02-13T13:11:07.545Z,780
2018-02-13T13:12:16.376Z,365
2018-02-13T13:13:25.257Z,565
2018-02-13T13:14:34.088Z,765
2018-02-13T13:15:42.919Z,705
2018-02-13T13:16:51.750Z,540
2018-02-13T13:18:00.856Z,350
2018-02-13T13:19:09.789Z,300
2018-02-13T13:20:18.621Z,430
2018-02-13T13:21:27.455Z,595
2018-02-13T13:22:36.288Z,890
2018-02-13T13:23:45.122Z,570
2018-02-13T13:24:53.955Z,250
2018-02-13T13:26:02.787Z,250
2018-02-13T13:27:11.619Z,390
2018-02-13T13:28:20.451Z,670
2018-02-13T13:29:29.286Z,800
2018-02-13T13:30:38.168Z,845
2018-02-13T13:31:47.002Z,1005
2018-02-13T13:32:55.832Z,1040
2018-02-13T13:34:04.665Z,1225
2018-02-13T13:35:13.774Z,735
2018-02-13T13:36:22.706Z,260
2018-02-13T13:37:31.539Z,250
2018-02-13T13:38:40.370Z,250
2018-02-13T13:39:49.202Z,295
2018-02-13T13:40:58.034Z,615
2018-02-13T13:42:06.866Z,675
2018-02-13T13:43:15.699Z,450
2018-02-13T13:44:24.533Z,675
2018-02-13T13:45:33.366Z,1045
2018-02-13T13:46:42.205Z,1175
2018-02-13T13:47:51.189Z,1280
2018-02-13T13:49:00.024Z,1185
2018-02-13T13:50:08.855Z,635
2018-02-13T13:51:17.690Z,300
2018-02-13T13:52:26.521Z,510
2018-02-13T13:53:35.404Z,635
2018-02-13T13:54:44.239Z,345
2018-02-13T13:55:53.072Z,625
2018-02-13T13:57:01.908Z,650
2018-02-13T13:58:10.742Z,395
2018-02-13T13:59:19.588Z,375
2018-02-13T14:00:28.421Z,385
2018-02-13T14:01:37.256Z,345
2018-02-13T14:02:46.089Z,385
2018-02-13T14:03:54.923Z,640
2018-02-13T14:05:03.907Z,630
2018-02-13T14:06:12.791Z,480
2018-02-13T14:07:21.642Z,545
2018-02-13T14:08:30.460Z,310
2018-02-13T14:09:39.295Z,525
2018-02-13T14:10:48.227Z,655
2018-02-13T14:11:57.336Z,725
2018-02-13T14:13:06.210Z,735
2018-02-13T14:14:15.004Z,585
2018-02-13T14:15:23.836Z,485
2018-02-13T14:16:32.722Z,445
2018-02-13T14:17:41.826Z,660
2018-02-13T14:18:50.660Z,630
2018-02-13T14:19:59.492Z,560
2018-02-13T14:21:08.325Z,510
2018-02-13T14:22:17.261Z,740
2018-02-13T14:23:26.094Z,590
2018-02-13T14:24:35.475Z,710
2018-02-13T14:25:44.310Z,620
2018-02-13T14:26:53.144Z,415
2018-02-13T14:28:02.128Z,275
2018-02-13T14:29:10.964Z,360
2018-02-13T14:30:19.799Z,375
2018-02-13T14:31:28.636Z,535
2018-02-13T14:32:37.479Z,655
2018-02-13T14:33:46.357Z,730
2018-02-13T14:34:55.197Z,815
2018-02-13T14:36:04.027Z,845
2018-02-13T14:37:12.860Z,860
2018-02-13T14:38:21.972Z,830
2018-02-13T14:39:31.110Z,815
2018-02-13T14:40:39.945Z,865
2018-02-13T14:41:48.783Z,890
2018-02-13T14:42:57.620Z,705
2018-02-13T14:44:06.456Z,635
2018-02-13T14:45:15.392Z,685
2018-02-13T14:46:24.236Z,740
2018-02-13T14:47:33.076Z,690
2018-02-13T14:48:42.191Z,780
2018-02-13T14:49:51.024Z,890
2018-02-13T14:51:00.012Z,865
2018-02-13T14:52:09.123Z,760
2018-02-13T14:53:17.959Z,695
2018-02-13T14:54:27.077Z,545
2018-02-13T14:55:35.912Z,475
2018-02-13T14:56:45.121Z,490
2018-02-13T14:57:53.959Z,510
2018-02-13T14:59:02.809Z,550
2018-02-13T15:00:11.920Z,565
2018-02-13T15:01:20.757Z,540
2018-02-13T15:02:29.643Z,540
2018-02-13T15:03:38.425Z,440
2018-02-13T15:04:47.265Z,550
2018-02-13T15:05:56.098Z,630
2018-02-13T15:07:04.933Z,650
2018-02-13T15:08:13.919Z,680
2018-02-13T15:09:22.758Z,670
2018-02-13T15:10:31.598Z,570
2018-02-13T15:11:40.433Z,410
2018-02-13T15:12:49.547Z,330
2018-02-13T15:13:58.437Z,430
2018-02-13T15:15:07.274Z,345
2018-02-13T15:16:16.114Z,295
2018-02-13T15:17:24.949Z,280
2018-02-13T15:18:33.809Z,315
2018-02-13T15:19:42.620Z,395
2018-02-13T15:20:51.454Z,310
2018-02-13T15:22:00.289Z,260
2018-02-13T15:23:09.120Z,290
2018-02-13T15:24:17.955Z,270
2018-02-13T15:25:26.836Z,265
2018-02-13T15:26:35.951Z,235
2018-02-13T15:27:44.787Z,335
2018-02-13T15:28:53.625Z,355
2018-02-13T15:30:02.732Z,320
2018-02-13T15:31:12.102Z,355
2018-02-13T15:32:20.936Z,415
2018-02-13T15:33:29.771Z,435
2018-02-13T15:34:38.606Z,250
2018-02-13T15:35:47.441Z,175
2018-02-13T15:36:56.575Z,245
2018-02-13T15:38:05.685Z,170
2018-02-13T15:39:14.521Z,125
2018-02-13T15:40:23.355Z,120
2018-02-13T15:41:32.188Z,120
2018-02-13T15:42:41.171Z,115
2018-02-13T15:43:50.284Z,115
2018-02-13T15:44:59.114Z,110
2018-02-13T15:46:07.948Z,110
2018-02-13T15:47:16.784Z,105
2018-02-13T15:48:25.770Z,105
2018-02-13T15:49:34.600Z,100
2018-02-13T15:50:43.432Z,100
2018-02-13T15:51:52.265Z,95
2018-02-13T15:53:01.096Z,95
2018-02-13T15:54:10.029Z,90
2018-02-13T15:55:18.864Z,95
2018-02-13T15:56:27.696Z,90
2018-02-13T15:57:36.531Z,85
2018-02-13T15:58:45.364Z,85
2018-02-13T15:59:54.641Z,80
2018-02-13T16:01:03.475Z,80
2018-02-13T16:02:12.582Z,75
2018-02-13T16:03:21.418Z,75
2018-02-13T16:04:30.247Z,70
2018-02-13T16:05:39.229Z,65
2018-02-13T16:06:48.060Z,65
2018-02-13T16:07:56.890Z,60
2018-02-13T16:09:05.728Z,60
2018-02-13T16:10:14.552Z,55
2018-02-13T16:11:23.957Z,55
2018-02-13T16:12:32.789Z,50
2018-02-13T16:13:41.620Z,50
2018-02-13T16:14:50.448Z,45
2018-02-13T16:15:59.280Z,45
2018-02-13T16:17:08.313Z,40
2018-02-13T16:18:17.144Z,40
2018-02-13T16:19:25.972Z,35